Hovedside
METAR-TAF:

METAR-TAF

Lufthavner :

Hans Christian Andersen Airport

Odense, Danmark

breddegrad: 55-29N, lengdegrad: 010-20E, høyde over havet: 17 m

Gjeldene værobservasjon

Denne rapporten ble laget for 28 minutter siden, klokken 06:50 UTC
Vind 14 kt fra Øst
Temperatur 11°C
Luftfuktighet 76%
Trykk 1016 hPa
Sikt 10 km eller mer
ingen skyer under 1500 m og ingen bygeskyer

METAR: EKOD 230650Z 10014KT CAVOK 11/07 Q1016

Tid: 09:18 (07:18 UTC)

Varsel

Denne rapporten ble laget for 55 minutter siden, klokken 06:23 UTC
Varsel gyldig fra 23. klokken 06 UTC til 23. klokken 15 UTC
Vind 18 kt fra Øst
Sikt 10 km eller mer
ingen skyer under 1500 m og ingen bygeskyer
Midlertidig
fra 23. klokken 06 UTC til 23. klokken 15 UTC
Vind 25 kt fra Øst-sørøst med vindkast opp mot 42 kt

TAF: EKOD 230623Z 2306/2315 10018KT CAVOK TEMPO 2306/2315 11025G42KT

Værobservasjoner og værvarsel for over 4000 flyplasser (METAR- og TAF-rapporter).

Tilgjengelige stasjoner er representert av de røde og gule prikkene på kartet.

Hold musepekeren over prikken for å se navnet på stasjonen.

Klikk så for å se værobservasjoner og -varsler.

For å forandre kartet kan du klikke på den grønne knappen med svart kryss for å zoome inn, på den grønne knappen med strek for å zoome ut, eller på de grønne pilene for å se tilstøtende kart.


METAR-TAF: